createdAt,value
2023-03-24T00:02:24.069Z,98034.92
2023-03-24T00:04:58.768Z,98037.37
2023-03-24T00:07:35.372Z,98034.48
2023-03-24T00:10:11.352Z,98034.98
2023-03-24T00:12:43.921Z,98035.88
2023-03-24T00:15:19.691Z,98039.90
2023-03-24T00:17:53.236Z,98037.73
2023-03-24T00:20:26.716Z,98037.86
2023-03-24T00:23:02.110Z,98038.05
2023-03-24T00:25:36.500Z,98035.20
2023-03-24T00:28:11.256Z,98030.42
2023-03-24T00:30:52.030Z,98029.02
2023-03-24T00:33:28.527Z,98023.21
2023-03-24T00:36:04.090Z,98021.69
2023-03-24T00:38:36.879Z,98022.09
2023-03-24T00:41:12.111Z,98014.21
2023-03-24T00:43:46.117Z,98014.74
2023-03-24T00:46:30.101Z,98015.63
2023-03-24T00:49:06.344Z,98012.51
2023-03-24T00:51:39.877Z,98002.67
2023-03-24T00:54:14.117Z,98001.27
2023-03-24T00:56:50.509Z,97998.95
2023-03-24T00:59:24.859Z,97999.16
2023-03-24T01:01:58.008Z,97994.55
2023-03-24T01:04:32.089Z,97997.01
2023-03-24T01:07:04.723Z,97993.96
2023-03-24T01:09:39.129Z,97986.48
2023-03-24T01:12:11.664Z,97983.41
2023-03-24T01:14:44.367Z,97977.31
2023-03-24T01:17:16.487Z,97972.07
2023-03-24T01:19:48.848Z,97971.73
2023-03-24T01:22:21.878Z,97972.77
2023-03-24T01:24:54.652Z,97972.41
2023-03-24T01:27:29.637Z,97970.31
2023-03-24T01:30:05.747Z,97968.50
2023-03-24T01:32:38.950Z,97966.39
2023-03-24T01:35:12.916Z,97965.52
2023-03-24T01:37:45.477Z,97965.14
2023-03-24T01:40:22.333Z,97963.33
2023-03-24T01:42:57.589Z,97968.99
2023-03-24T01:46:08.062Z,97967.40
2023-03-24T01:48:46.753Z,97967.02
2023-03-24T01:51:23.852Z,97967.58
2023-03-24T01:53:59.356Z,97968.34
2023-03-24T01:56:38.158Z,97961.13
2023-03-24T01:59:13.868Z,97964.99
2023-03-24T02:01:49.363Z,97961.13
2023-03-24T02:04:25.856Z,97959.70
2023-03-24T02:06:58.673Z,97959.35
2023-03-24T02:09:31.038Z,97957.75
2023-03-24T02:12:05.240Z,97958.19
2023-03-24T02:14:38.563Z,97955.05
2023-03-24T02:17:26.296Z,97955.17
2023-03-24T02:20:29.918Z,97957.71
2023-03-24T02:23:34.730Z,97956.38
2023-03-24T02:26:28.769Z,97952.85
2023-03-24T02:29:12.750Z,97949.48
2023-03-24T02:32:16.267Z,97950.92
2023-03-24T02:35:12.190Z,97945.20
2023-03-24T02:38:05.248Z,97942.59
2023-03-24T02:40:46.614Z,97939.59
2023-03-24T02:43:28.212Z,97938.58
2023-03-24T02:46:14.029Z,97938.64
2023-03-24T02:49:01.329Z,97937.34
2023-03-24T02:51:36.433Z,97930.56
2023-03-24T02:54:12.212Z,97927.09
2023-03-24T02:56:50.174Z,97928.45
2023-03-24T02:59:24.099Z,97930.61
2023-03-24T03:02:03.882Z,97932.59
2023-03-24T03:04:38.601Z,97930.52
2023-03-24T03:07:16.941Z,97934.50
2023-03-24T03:09:57.571Z,97936.23
2023-03-24T03:12:34.466Z,97933.83
2023-03-24T03:15:11.446Z,97929.35
2023-03-24T03:17:53.277Z,97928.87
2023-03-24T03:20:31.228Z,97928.23
2023-03-24T03:23:05.771Z,97930.64
2023-03-24T03:25:42.396Z,97930.02
2023-03-24T03:28:20.853Z,97931.03
2023-03-24T03:30:56.159Z,97930.21
2023-03-24T03:33:32.121Z,97932.41
2023-03-24T03:36:12.131Z,97931.44
2023-03-24T03:38:49.281Z,97930.47
2023-03-24T03:41:21.910Z,97929.30
2023-03-24T03:43:54.662Z,97927.25
2023-03-24T03:46:28.964Z,97925.87
2023-03-24T03:49:02.670Z,97923.27
2023-03-24T03:51:36.194Z,97922.63
2023-03-24T03:54:11.574Z,97926.25
2023-03-24T03:56:46.676Z,97925.88
2023-03-24T03:59:33.967Z,97927.54
2023-03-24T04:02:18.206Z,97929.19
2023-03-24T04:05:06.821Z,97925.22
2023-03-24T04:07:54.197Z,97928.84
2023-03-24T04:10:32.561Z,97927.42
2023-03-24T04:13:15.727Z,97925.77
2023-03-24T04:15:54.762Z,97922.98
2023-03-24T04:18:46.173Z,97925.35
2023-03-24T04:21:33.921Z,97925.43
2023-03-24T04:24:20.096Z,97921.27
2023-03-24T04:27:01.182Z,97922.71
2023-03-24T04:29:42.404Z,97921.26
2023-03-24T04:32:20.217Z,97918.71
2023-03-24T04:35:02.659Z,97918.65
2023-03-24T04:37:38.560Z,97922.52
2023-03-24T04:40:14.970Z,97923.84
2023-03-24T04:42:52.908Z,97923.54
2023-03-24T04:45:27.092Z,97926.16
2023-03-24T04:48:03.958Z,97930.99
2023-03-24T04:50:39.829Z,97929.00
2023-03-24T04:53:13.652Z,97929.14
2023-03-24T04:56:13.173Z,97929.60
2023-03-24T04:58:45.308Z,97927.58
2023-03-24T05:01:22.110Z,97930.51
2023-03-24T05:03:55.724Z,97934.71
2023-03-24T05:06:31.549Z,97930.88
2023-03-24T05:09:05.810Z,97921.04
2023-03-24T05:11:39.311Z,97920.70
2023-03-24T05:14:11.348Z,97915.23
2023-03-24T05:16:45.651Z,97913.38
2023-03-24T05:19:21.870Z,97911.80
2023-03-24T05:21:55.020Z,97913.14
2023-03-24T05:24:28.412Z,97910.16
2023-03-24T05:27:02.599Z,97910.55
2023-03-24T05:29:36.619Z,97912.80
2023-03-24T05:32:09.365Z,97916.28
2023-03-24T05:34:41.961Z,97914.54
2023-03-24T05:37:18.815Z,97912.03
2023-03-24T05:39:50.762Z,97910.93
2023-03-24T05:42:22.844Z,97910.15
2023-03-24T05:44:55.400Z,97910.60
2023-03-24T05:47:28.384Z,97915.27
2023-03-24T05:50:04.293Z,97912.01
2023-03-24T05:52:37.008Z,97911.05
2023-03-24T05:55:10.983Z,97909.39
2023-03-24T05:57:43.658Z,97904.40
2023-03-24T06:00:17.973Z,97899.95
2023-03-24T06:02:50.727Z,97903.64
2023-03-24T06:05:31.614Z,97901.45
2023-03-24T06:08:06.081Z,97905.48
2023-03-24T06:10:38.681Z,97902.96
2023-03-24T06:13:14.953Z,97904.87
2023-03-24T06:15:48.592Z,97904.07
2023-03-24T06:18:21.586Z,97901.67
2023-03-24T06:20:57.138Z,97900.50
2023-03-24T06:23:31.222Z,97899.31
2023-03-24T06:26:03.650Z,97899.48
2023-03-24T06:28:39.953Z,97896.95
2023-03-24T06:31:18.744Z,97891.17
2023-03-24T06:33:51.090Z,97893.22
2023-03-24T06:36:25.859Z,97896.34
2023-03-24T06:38:59.504Z,97897.19
2023-03-24T06:41:32.562Z,97894.75
2023-03-24T06:44:06.415Z,97895.12
2023-03-24T06:46:38.296Z,97898.67
2023-03-24T06:49:11.111Z,97900.23
2023-03-24T06:51:43.554Z,97896.27
2023-03-24T06:54:19.816Z,97893.02
2023-03-24T06:56:58.751Z,97896.34
2023-03-24T06:59:31.644Z,97896.38
2023-03-24T07:02:04.651Z,97895.89
2023-03-24T07:04:37.035Z,97888.83
2023-03-24T07:07:52.710Z,97888.73
2023-03-24T07:10:08.770Z,97889.39
2023-03-24T07:12:43.635Z,97891.48
2023-03-24T07:15:16.442Z,97891.20
2023-03-24T07:17:49.196Z,97895.80
2023-03-24T07:20:22.229Z,97897.63
2023-03-24T07:22:58.317Z,97898.67
2023-03-24T07:25:30.910Z,97897.09
2023-03-24T07:28:04.460Z,97892.11
2023-03-24T07:30:51.229Z,97888.70
2023-03-24T07:33:27.477Z,97887.74
2023-03-24T07:36:01.009Z,97889.58
2023-03-24T07:38:35.920Z,97887.17
2023-03-24T07:41:08.935Z,97887.26
2023-03-24T07:43:42.237Z,97882.59
2023-03-24T07:46:15.890Z,97878.80
2023-03-24T07:48:50.631Z,97875.34
2023-03-24T07:51:25.462Z,97871.48
2023-03-24T07:53:57.891Z,97867.72
2023-03-24T07:56:34.430Z,97867.66
2023-03-24T07:59:06.388Z,97866.75
2023-03-24T08:01:41.565Z,97864.14
2023-03-24T08:04:16.259Z,97863.05
2023-03-24T08:06:50.117Z,97859.44
2023-03-24T08:09:25.191Z,97855.73
2023-03-24T08:12:07.119Z,97848.63
2023-03-24T08:14:46.330Z,97845.22
2023-03-24T08:17:18.196Z,97844.69
2023-03-24T08:20:00.185Z,97844.25
2023-03-24T08:22:34.491Z,97844.83
2023-03-24T08:25:11.055Z,97841.63
2023-03-24T08:27:45.620Z,97842.61
2023-03-24T08:30:27.409Z,97840.70
2023-03-24T08:33:06.688Z,97837.13
2023-03-24T08:35:50.394Z,97833.74
2023-03-24T08:38:32.974Z,97830.66
2023-03-24T08:41:14.196Z,97824.89
2023-03-24T08:43:49.685Z,97817.83
2023-03-24T08:46:26.236Z,97821.27
2023-03-24T08:49:06.066Z,97817.05
2023-03-24T08:51:45.281Z,97813.05
2023-03-24T08:54:24.721Z,97803.77
2023-03-24T08:57:03.191Z,97803.05
2023-03-24T08:59:50.872Z,97802.38
2023-03-24T09:02:33.726Z,97798.67
2023-03-24T09:05:10.061Z,97792.79
2023-03-24T09:07:47.173Z,97791.23
2023-03-24T09:10:28.405Z,97785.24
2023-03-24T09:13:08.483Z,97780.99
2023-03-24T09:15:54.005Z,97778.88
2023-03-24T09:18:35.370Z,97776.45
2023-03-24T09:21:11.310Z,97774.91
2023-03-24T09:23:51.045Z,97768.14
2023-03-24T09:26:29.696Z,97767.89
2023-03-24T09:29:08.161Z,97768.08
2023-03-24T09:31:47.245Z,97768.21
2023-03-24T09:34:25.296Z,97760.13
2023-03-24T09:37:11.366Z,97757.81
2023-03-24T09:39:49.562Z,97752.70
2023-03-24T09:42:27.017Z,97747.69
2023-03-24T09:45:03.595Z,97741.86
2023-03-24T09:47:46.482Z,97743.05
2023-03-24T09:50:29.564Z,97738.20
2023-03-24T09:53:11.273Z,97736.94
2023-03-24T09:55:46.534Z,97730.92
2023-03-24T09:58:24.358Z,97725.02
2023-03-24T10:00:57.889Z,97722.89
2023-03-24T10:03:56.583Z,97720.84
2023-03-24T10:06:31.395Z,97718.25
2023-03-24T10:09:16.070Z,97718.63
2023-03-24T10:11:53.269Z,97720.80
2023-03-24T10:14:33.614Z,97718.75
2023-03-24T10:17:13.237Z,97718.67
2023-03-24T10:19:54.116Z,97715.73
2023-03-24T10:22:33.858Z,97718.86
2023-03-24T10:25:13.652Z,97715.52
2023-03-24T10:27:53.973Z,97713.45
2023-03-24T10:30:29.634Z,97708.16
2023-03-24T10:33:04.516Z,97703.25
2023-03-24T10:35:38.862Z,97702.95
2023-03-24T10:38:20.360Z,97701.52
2023-03-24T10:40:52.713Z,97699.98
2023-03-24T10:43:28.314Z,97699.42
2023-03-24T10:46:01.248Z,97700.66
2023-03-24T10:48:46.537Z,97702.96
2023-03-24T10:51:21.415Z,97696.17
2023-03-24T10:53:54.381Z,97700.42
2023-03-24T10:56:43.374Z,97694.73
2023-03-24T10:59:27.667Z,97691.98
2023-03-24T11:02:08.646Z,97684.60
2023-03-24T11:04:43.181Z,97680.50
2023-03-24T11:07:20.935Z,97677.07
2023-03-24T11:10:03.888Z,97679.69
2023-03-24T11:12:38.888Z,97682.98
2023-03-24T11:15:23.314Z,97682.59
2023-03-24T11:18:01.512Z,97676.13
2023-03-24T11:20:43.394Z,97676.63
2023-03-24T11:23:33.100Z,97668.40
2023-03-24T11:26:14.128Z,97664.78
2023-03-24T11:28:52.323Z,97661.67
2023-03-24T11:31:30.837Z,97656.79
2023-03-24T11:34:09.396Z,97653.02
2023-03-24T11:36:46.900Z,97650.52
2023-03-24T11:39:22.742Z,97638.36
2023-03-24T11:42:03.202Z,97631.79
2023-03-24T11:44:51.379Z,97627.67
2023-03-24T11:47:28.979Z,97621.44
2023-03-24T11:50:16.518Z,97623.33
2023-03-24T11:52:50.553Z,97613.08
2023-03-24T11:55:28.988Z,97614.58
2023-03-24T11:58:04.443Z,97612.31
2023-03-24T12:00:42.237Z,97606.29
2023-03-24T12:03:42.244Z,97607.85
2023-03-24T12:06:23.494Z,97610.36
2023-03-24T12:09:06.605Z,97606.04
2023-03-24T12:11:53.221Z,97604.52
2023-03-24T12:14:32.027Z,97603.02
2023-03-24T12:17:08.635Z,97604.29
2023-03-24T12:20:16.491Z,97603.77
2023-03-24T12:22:56.695Z,97603.70
2023-03-24T12:25:48.405Z,97605.05
2023-03-24T12:28:36.452Z,97598.16
2023-03-24T12:31:19.590Z,97597.56
2023-03-24T12:33:57.485Z,97595.77
2023-03-24T12:36:44.426Z,97594.84
2023-03-24T12:39:19.678Z,97586.19
2023-03-24T12:42:02.091Z,97585.00
2023-03-24T12:45:07.936Z,97581.48
2023-03-24T12:47:58.443Z,97581.30
2023-03-24T12:50:36.478Z,97578.80
2023-03-24T12:53:25.638Z,97576.20
2023-03-24T12:56:04.508Z,97571.98
2023-03-24T12:58:46.185Z,97571.34
2023-03-24T13:01:38.596Z,97565.87
2023-03-24T13:04:14.661Z,97564.65
2023-03-24T13:06:53.263Z,97559.25
2023-03-24T13:09:35.789Z,97552.26
2023-03-24T13:12:14.196Z,97553.80
2023-03-24T13:14:57.888Z,97552.36
2023-03-24T13:17:37.501Z,97550.74
2023-03-24T13:20:31.651Z,97549.89
2023-03-24T13:23:43.764Z,97553.06
2023-03-24T13:26:26.959Z,97549.89
2023-03-24T13:29:19.801Z,97545.55
2023-03-24T13:31:59.729Z,97541.54
2023-03-24T13:34:40.306Z,97540.65
2023-03-24T13:37:18.867Z,97538.48
2023-03-24T13:39:58.198Z,97538.19
2023-03-24T13:42:36.970Z,97536.38
2023-03-24T13:45:27.153Z,97537.84
2023-03-24T13:48:20.045Z,97532.85
2023-03-24T13:50:58.418Z,97532.77
2023-03-24T13:53:47.162Z,97525.11
2023-03-24T13:56:27.667Z,97518.98
2023-03-24T13:59:30.780Z,97519.32
2023-03-24T14:02:46.540Z,97521.36
2023-03-24T14:05:51.928Z,97519.17
2023-03-24T14:08:48.893Z,97511.55
2023-03-24T14:11:49.800Z,97514.89
2023-03-24T14:14:26.530Z,97511.81
2023-03-24T14:17:20.375Z,97512.09
2023-03-24T14:20:26.991Z,97509.31
2023-03-24T14:23:06.524Z,97506.85
2023-03-24T14:25:41.292Z,97499.13
2023-03-24T14:28:30.789Z,97494.05
2023-03-24T14:31:17.305Z,97491.45
2023-03-24T14:34:06.203Z,97490.96
2023-03-24T14:36:45.349Z,97485.48
2023-03-24T14:39:37.241Z,97486.21
2023-03-24T14:43:02.912Z,97484.31
2023-03-24T14:46:04.267Z,97479.62
2023-03-24T14:48:42.848Z,97474.32
2023-03-24T14:51:39.608Z,97468.36
2023-03-24T14:54:21.824Z,97462.98
2023-03-24T14:57:04.264Z,97466.20
2023-03-24T14:59:56.034Z,97459.39
2023-03-24T15:02:42.981Z,97462.31
2023-03-24T15:05:53.509Z,97465.81
2023-03-24T15:08:32.116Z,97466.48
2023-03-24T15:11:06.542Z,97462.46
2023-03-24T15:13:44.440Z,97466.13
2023-03-24T15:16:30.052Z,97468.51
2023-03-24T15:19:09.712Z,97458.33
2023-03-24T15:21:49.425Z,97453.20
2023-03-24T15:24:30.989Z,97454.01
2023-03-24T15:27:23.093Z,97451.80
2023-03-24T15:29:59.725Z,97444.62
2023-03-24T15:32:40.377Z,97443.91
2023-03-24T15:35:17.840Z,97445.05
2023-03-24T15:37:56.546Z,97446.61
2023-03-24T15:40:37.660Z,97455.79
2023-03-24T15:43:23.590Z,97464.88
2023-03-24T15:46:12.028Z,97465.50
2023-03-24T15:48:52.072Z,97472.33
2023-03-24T15:51:50.247Z,97476.86
2023-03-24T15:54:25.864Z,97483.52
2023-03-24T15:57:12.767Z,97489.70
2023-03-24T15:59:49.432Z,97492.50
2023-03-24T16:02:34.473Z,97499.11
2023-03-24T16:05:19.769Z,97498.29
2023-03-24T16:08:03.589Z,97499.11
2023-03-24T16:10:43.216Z,97495.60
2023-03-24T16:13:20.705Z,97501.59
2023-03-24T16:16:01.036Z,97502.91
2023-03-24T16:18:37.372Z,97508.54
2023-03-24T16:21:16.698Z,97508.98
2023-03-24T16:23:51.404Z,97511.11
2023-03-24T16:26:24.780Z,97514.41
2023-03-24T16:29:01.802Z,97513.81
2023-03-24T16:31:36.154Z,97516.59
2023-03-24T16:34:11.566Z,97516.63
2023-03-24T16:36:44.959Z,97518.25
2023-03-24T16:39:18.769Z,97527.54
2023-03-24T16:41:52.997Z,97531.31
2023-03-24T16:44:27.202Z,97533.50
2023-03-24T16:47:01.844Z,97534.65
2023-03-24T16:49:38.112Z,97537.64
2023-03-24T16:52:16.096Z,97536.17
2023-03-24T16:54:52.949Z,97538.50
2023-03-24T16:57:25.507Z,97536.38
2023-03-24T17:00:01.454Z,97537.08
2023-03-24T17:02:37.872Z,97531.71
2023-03-24T20:19:11.544Z,97547.56
2023-03-24T20:21:40.883Z,97551.11
2023-03-24T20:24:11.168Z,97549.09
2023-03-24T20:26:42.708Z,97546.70
2023-03-24T20:29:12.750Z,97544.91
2023-03-24T20:31:42.922Z,97548.14
2023-03-24T20:34:11.720Z,97549.84
2023-03-24T20:36:42.802Z,97549.13
2023-03-24T20:39:18.543Z,97545.27
2023-03-24T20:41:49.406Z,97547.27
2023-03-24T20:44:17.960Z,97546.03
2023-03-24T20:46:48.161Z,97551.83
2023-03-24T20:49:17.186Z,97552.75
2023-03-24T20:51:46.905Z,97557.22
2023-03-24T20:54:16.996Z,97557.50
2023-03-24T20:56:46.691Z,97562.48
2023-03-24T20:59:18.325Z,97564.96
2023-03-24T21:01:49.472Z,97566.30
2023-03-24T21:04:19.755Z,97564.77
2023-03-24T21:06:48.740Z,97563.52
2023-03-24T21:09:21.724Z,97561.55
2023-03-24T21:11:50.362Z,97555.11
2023-03-24T21:14:21.372Z,97549.21
2023-03-24T21:16:52.156Z,97545.67
2023-03-24T21:19:22.320Z,97552.88
2023-03-24T21:21:51.171Z,97557.26
2023-03-24T21:24:25.008Z,97552.50
2023-03-24T21:26:56.448Z,97561.35
2023-03-24T21:29:27.393Z,97560.29
2023-03-24T21:31:57.624Z,97561.85
2023-03-24T21:34:28.442Z,97556.90
2023-03-24T21:37:00.928Z,97554.19
2023-03-24T21:39:32.903Z,97555.17
2023-03-24T21:42:02.787Z,97557.61
2023-03-24T21:44:33.960Z,97553.98
2023-03-24T21:47:02.557Z,97552.64
2023-03-24T21:49:33.294Z,97554.05
2023-03-24T21:52:04.194Z,97549.14
2023-03-24T21:54:34.220Z,97551.21
2023-03-24T21:57:03.400Z,97550.31
2023-03-24T21:59:37.142Z,97545.56
2023-03-24T22:02:13.795Z,97544.67
2023-03-24T22:04:46.495Z,97547.45
2023-03-24T22:07:21.876Z,97545.98
2023-03-24T22:09:56.221Z,97538.95
2023-03-24T22:12:26.599Z,97539.58
2023-03-24T22:14:55.841Z,97537.08
2023-03-24T22:17:30.174Z,97541.27
2023-03-24T22:19:58.739Z,97543.48
2023-03-24T22:22:29.365Z,97546.16
2023-03-24T22:24:57.959Z,97544.64
2023-03-24T22:27:26.703Z,97547.09
2023-03-24T22:29:55.169Z,97543.89
2023-03-24T22:32:24.335Z,97538.27
2023-03-24T22:34:52.837Z,97534.98
2023-03-24T22:37:21.338Z,97532.23
2023-03-24T22:39:49.927Z,97532.30
2023-03-24T22:42:18.386Z,97533.00
2023-03-24T22:44:46.910Z,97534.33
2023-03-24T22:47:15.577Z,97537.06
2023-03-24T22:49:47.309Z,97539.14
2023-03-24T22:52:15.811Z,97540.58
2023-03-24T22:54:44.360Z,97535.04
2023-03-24T22:57:13.408Z,97534.17
2023-03-24T22:59:41.769Z,97532.23
2023-03-24T23:02:10.700Z,97533.64
2023-03-24T23:04:39.850Z,97533.17
2023-03-24T23:07:08.518Z,97528.58
2023-03-24T23:09:37.686Z,97520.55
2023-03-24T23:12:07.006Z,97517.48
2023-03-24T23:14:37.473Z,97513.71
2023-03-24T23:17:08.847Z,97516.30
2023-03-24T23:19:37.883Z,97521.46
2023-03-24T23:22:07.676Z,97525.02
2023-03-24T23:24:38.744Z,97528.22
2023-03-24T23:27:07.243Z,97527.84
2023-03-24T23:29:39.639Z,97535.39
2023-03-24T23:32:08.443Z,97536.14
2023-03-24T23:34:37.465Z,97535.25
2023-03-24T23:37:05.840Z,97536.72
2023-03-24T23:39:36.072Z,97528.73
2023-03-24T23:42:05.206Z,97523.31
2023-03-24T23:44:33.755Z,97520.23
2023-03-24T23:47:02.284Z,97511.14
2023-03-24T23:49:30.856Z,97498.73
2023-03-24T23:51:59.200Z,97496.63
2023-03-24T23:54:28.540Z,97510.59
2023-03-24T23:56:56.974Z,97512.46
2023-03-24T23:59:25.489Z,97503.94
